TimeCDT,TemperatureF,Dew PointF,Humidity,Sea Level PressureIn,VisibilityMPH,Wind Direction,Wind SpeedMPH,Gust SpeedMPH,PrecipitationIn,Events,Conditions,WindDirDegrees,DateUTC
12:15 AM,48.2,46.4,93,30.16,10.0,Calm,Calm,-,N/A,,Scattered Clouds,0,2013-04-22 05:15:00
12:35 AM,48.2,46.4,93,30.16,10.0,Calm,Calm,-,N/A,,Mostly Cloudy,0,2013-04-22 05:35:00
12:55 AM,46.4,46.4,100,30.16,10.0,Calm,Calm,-,N/A,,Overcast,0,2013-04-22 05:55:00
1:15 AM,46.4,46.4,100,30.16,10.0,Calm,Calm,-,N/A,,Overcast,0,2013-04-22 06:15:00
1:35 AM,46.4,46.4,100,30.14,10.0,Calm,Calm,-,N/A,,Overcast,0,2013-04-22 06:35:00
1:55 AM,46.4,46.4,100,30.15,7.0,Calm,Calm,-,N/A,,Scattered Clouds,0,2013-04-22 06:55:00
2:15 AM,44.6,44.6,100,30.14,7.0,Calm,Calm,-,N/A,,Clear,0,2013-04-22 07:15:00
2:35 AM,42.8,42.8,100,30.13,2.0,Calm,Calm,-,N/A,,Clear,0,2013-04-22 07:35:00
2:55 AM,42.8,42.8,100,30.13,3.0,Calm,Calm,-,N/A,,Scattered Clouds,0,2013-04-22 07:55:00
3:15 AM,42.8,42.8,100,30.13,0.5,North,5.8,-,N/A,Fog,Fog,10,2013-04-22 08:15:00
3:35 AM,44.6,44.6,100,30.13,5.0,North,5.8,-,N/A,,Mostly Cloudy,360,2013-04-22 08:35:00
3:55 AM,44.6,44.6,100,30.12,4.0,Calm,Calm,-,N/A,,Drizzle,0,2013-04-22 08:55:00
4:15 AM,44.6,44.6,100,30.13,2.5,North,3.5,-,N/A,Rain,Rain,360,2013-04-22 09:15:00
4:35 AM,44.6,44.6,100,30.13,1.5,Calm,Calm,-,0.03,Rain,Rain,0,2013-04-22 09:35:00
4:55 AM,44.6,44.6,100,30.12,0.8,Calm,Calm,-,0.06,Rain,Light Rain,0,2013-04-22 09:55:00
5:15 AM,44.6,44.6,100,30.11,1.8,Calm,Calm,-,0.01,Rain,Light Rain,0,2013-04-22 10:15:00
5:35 AM,44.6,44.6,100,30.11,1.8,Calm,Calm,-,0.02,Rain,Rain,0,2013-04-22 10:35:00
5:55 AM,44.6,44.6,100,30.11,1.8,North,4.6,-,0.04,Rain,Rain,10,2013-04-22 10:55:00
6:15 AM,44.6,44.6,100,30.10,3.0,NNE,8.1,-,0.01,,Overcast,20,2013-04-22 11:15:00
6:35 AM,44.6,44.6,100,30.09,5.0,NNE,3.5,-,0.01,,Overcast,20,2013-04-22 11:35:00
6:55 AM,44.6,44.6,100,30.09,10.0,ENE,4.6,-,0.01,Rain,Light Rain,60,2013-04-22 11:55:00
7:15 AM,46.4,46.4,100,30.10,7.0,Calm,Calm,-,N/A,Rain,Light Rain,0,2013-04-22 12:15:00
7:35 AM,44.6,44.6,100,30.10,4.0,NNE,5.8,-,N/A,,Overcast,20,2013-04-22 12:35:00
7:55 AM,44.6,44.6,100,30.10,3.0,NNE,6.9,-,N/A,,Scattered Clouds,20,2013-04-22 12:55:00
8:15 AM,44.6,44.6,100,30.10,2.5,Calm,Calm,-,N/A,,Scattered Clouds,0,2013-04-22 13:15:00
8:35 AM,44.6,44.6,100,30.11,4.0,Calm,Calm,-,0.01,Rain,Light Rain,0,2013-04-22 13:35:00
8:55 AM,44.6,44.6,100,30.11,2.5,North,4.6,-,0.01,Rain,Light Rain,10,2013-04-22 13:55:00
9:15 AM,44.6,44.6,100,30.11,2.0,NNE,4.6,-,N/A,Rain,Light Rain,20,2013-04-22 14:15:00
9:35 AM,42.8,42.8,100,30.11,2.0,North,4.6,-,0.01,Rain,Light Rain,10,2013-04-22 14:35:00
9:55 AM,42.8,42.8,100,30.10,2.0,North,5.8,-,0.02,Rain,Light Rain,10,2013-04-22 14:55:00
10:15 AM,42.8,42.8,100,30.11,2.0,Calm,Calm,-,N/A,Rain,Light Rain,0,2013-04-22 15:15:00
10:35 AM,44.6,44.6,100,30.10,1.8,Calm,Calm,-,0.03,Rain,Rain,0,2013-04-22 15:35:00
10:55 AM,44.6,44.6,100,30.10,2.0,Calm,Calm,-,0.09,Rain,Rain,0,2013-04-22 15:55:00
11:15 AM,44.6,44.6,100,30.09,2.5,Calm,Calm,-,0.03,Rain,Light Rain,0,2013-04-22 16:15:00
11:35 AM,48.2,48.2,100,30.06,2.5,East,4.6,-,0.03,,Mostly Cloudy,90,2013-04-22 16:35:00
11:55 AM,48.2,48.2,100,30.05,7.0,SE,5.8,-,0.03,,Light Drizzle,130,2013-04-22 16:55:00
12:15 PM,51.8,48.2,88,30.05,10.0,SE,6.9,-,N/A,,Scattered Clouds,140,2013-04-22 17:15:00
12:35 PM,51.8,50.0,94,30.04,10.0,SSE,6.9,-,N/A,,Clear,150,2013-04-22 17:35:00
12:55 PM,53.6,50.0,88,30.03,10.0,SSE,6.9,-,N/A,,Light Drizzle,150,2013-04-22 17:55:00
1:15 PM,53.6,50.0,88,30.02,10.0,SE,6.9,-,N/A,Rain,Light Rain,130,2013-04-22 18:15:00
1:35 PM,53.6,48.2,82,30.01,10.0,SSE,6.9,-,N/A,,Light Drizzle,160,2013-04-22 18:35:00
1:55 PM,55.4,48.2,77,30.00,10.0,SSE,10.4,-,N/A,,Light Drizzle,150,2013-04-22 18:55:00
2:15 PM,55.4,50.0,82,29.99,10.0,SSE,6.9,-,N/A,Rain,Light Rain,160,2013-04-22 19:15:00
2:35 PM,55.4,50.0,82,30.00,10.0,SSW,6.9,-,0.02,Rain,Rain,210,2013-04-22 19:35:00
2:55 PM,53.6,51.8,94,29.99,10.0,WSW,3.5,-,0.05,Rain,Light Rain,250,2013-04-22 19:55:00
3:15 PM,53.6,51.8,94,29.98,10.0,WNW,3.5,-,0.03,Rain,Light Rain,290,2013-04-22 20:15:00
3:35 PM,53.6,51.8,94,29.97,10.0,NNW,5.8,-,0.03,Rain,Light Rain,330,2013-04-22 20:35:00
3:55 PM,53.6,51.8,94,29.97,10.0,North,3.5,-,0.04,Rain,Light Rain,350,2013-04-22 20:55:00
4:15 PM,51.8,51.8,100,29.99,7.0,NW,9.2,-,0.02,Rain,Rain,310,2013-04-22 21:15:00
4:35 PM,50.0,50.0,100,29.99,5.0,NNW,6.9,-,0.07,Rain,Rain,330,2013-04-22 21:35:00
4:55 PM,48.2,48.2,100,30.00,7.0,NNW,5.8,-,0.11,Rain,Rain,330,2013-04-22 21:55:00
5:15 PM,48.2,46.4,93,30.01,10.0,NW,13.8,-,0.04,Rain,Rain,320,2013-04-22 22:15:00
5:35 PM,42.8,42.8,100,30.02,10.0,North,17.3,-,0.05,Rain,Light Rain,350,2013-04-22 22:35:00
5:55 PM,39.2,39.2,100,30.04,7.0,NNW,18.4,26.5,0.07,Rain,Rain,340,2013-04-22 22:55:00
6:15 PM,37.4,37.4,100,30.05,10.0,North,20.7,-,0.02,Rain,Rain,350,2013-04-22 23:15:00
6:35 PM,37.4,37.4,100,30.07,7.0,North,19.6,25.3,0.05,Rain,Rain,350,2013-04-22 23:35:00
6:55 PM,35.6,35.6,100,30.09,7.0,North,17.3,-,0.09,Rain,Light Rain,350,2013-04-22 23:55:00
7:15 PM,35.6,35.6,100,30.10,7.0,North,18.4,21.9,0.02,Rain,Light Rain,350,2013-04-23 00:15:00
7:35 PM,35.6,35.6,100,30.11,10.0,North,13.8,-,0.02,Rain,Light Rain,350,2013-04-23 00:35:00
7:55 PM,35.6,35.6,100,30.12,10.0,North,16.1,20.7,0.02,,Overcast,350,2013-04-23 00:55:00
8:15 PM,35.6,35.6,100,30.14,10.0,North,18.4,25.3,N/A,,Overcast,350,2013-04-23 01:15:00
8:35 PM,35.6,35.6,100,30.14,10.0,North,21.9,27.6,N/A,,Overcast,350,2013-04-23 01:35:00
8:55 PM,33.8,33.8,100,30.16,10.0,North,13.8,26.5,N/A,,Overcast,360,2013-04-23 01:55:00
9:15 PM,33.8,33.8,100,30.17,10.0,North,19.6,27.6,N/A,,Overcast,350,2013-04-23 02:15:00
9:35 PM,33.8,33.8,100,30.18,10.0,North,20.7,25.3,N/A,,Overcast,350,2013-04-23 02:35:00
9:55 PM,33.8,33.8,100,30.19,10.0,North,18.4,26.5,N/A,,Overcast,350,2013-04-23 02:55:00
10:15 PM,33.8,32.0,93,30.21,10.0,North,19.6,28.8,N/A,,Overcast,350,2013-04-23 03:15:00
10:35 PM,33.8,30.2,87,30.19,10.0,North,18.4,24.2,N/A,,Overcast,360,2013-04-23 03:35:00
10:55 PM,33.8,30.2,87,30.18,10.0,North,17.3,23.0,N/A,,Overcast,360,2013-04-23 03:55:00
11:15 PM,33.8,30.2,87,30.17,10.0,North,17.3,29.9,N/A,,Overcast,360,2013-04-23 04:15:00
11:35 PM,32.0,30.2,93,30.19,7.0,North,21.9,29.9,N/A,Snow,Light Snow,350,2013-04-23 04:35:00
11:55 PM,33.8,30.2,87,30.21,10.0,North,20.7,25.3,N/A,,Overcast,350,2013-04-23 04:55:00